Time;durP1;ratioP1;P1;durP2;ratioP2;P2;SDS_P1;SDS_P2;PMS_P1;PMS_P2;Temp;Humidity;BMP_temperature;BMP_pressure;BME280_temperature;BME280_humidity;BME280_pressure;Samples;Min_cycle;Max_cycle;Signal;HPM_P1;HPM_P2
2023/08/07 00:00:12;;;;;;;6.00;1.40;;;;;;;;;;619508;23;887;-72
2023/08/07 00:00:28;;;;;;;4.57;1.27;;;;;;;;;;616007;23;1248;-71
2023/08/07 00:00:44;;;;;;;4.60;1.30;;;;;;;;;;616523;23;1418;-73
2023/08/07 00:01:02;;;;;;;5.78;1.55;;;;;;;;;;616802;23;1314;-73
2023/08/07 00:01:20;;;;;;;6.70;1.52;;;;;;;;;;616580;23;1246;-73
2023/08/07 00:01:36;;;;;;;7.32;1.50;;;;;;;;;;616832;23;1391;-73
2023/08/07 00:01:52;;;;;;;4.93;1.30;;;;;;;;;;619746;23;1323;-73
2023/08/07 00:02:08;;;;;;;4.50;1.35;;;;;;;;;;619750;23;1303;-71
2023/08/07 00:02:26;;;;;;;5.60;1.50;;;;;;;;;;620083;23;856;-71
2023/08/07 00:02:43;;;;;;;4.88;1.38;;;;;;;;;;619726;23;1188;-71
2023/08/07 00:02:58;;;;;;;3.92;1.20;;;;;;;;;;622608;23;1475;-72
2023/08/07 00:03:18;;;;;;;5.33;1.20;;;;;;;;;;622444;23;1276;-72
2023/08/07 00:03:35;;;;;;;4.35;1.30;;;;;;;;;;625027;23;1013;-72
2023/08/07 00:03:51;;;;;;;4.40;1.30;;;;;;;;;;625761;23;1311;-73
2023/08/07 00:04:06;;;;;;;5.68;1.40;;;;;;;;;;622734;23;1355;-73
2023/08/07 00:04:22;;;;;;;6.07;1.40;;;;;;;;;;622367;23;1264;-73
2023/08/07 00:04:37;;;;;;;5.60;1.40;;;;;;;;;;619349;23;1219;-73
2023/08/07 00:04:53;;;;;;;5.78;1.38;;;;;;;;;;616939;23;1328;-73
2023/08/07 00:05:09;;;;;;;5.10;1.25;;;;;;;;;;616955;23;1422;-73
2023/08/07 00:05:25;;;;;;;5.10;1.30;;;;;;;;;;619584;23;1500;-72
2023/08/07 00:05:41;;;;;;;5.33;1.33;;;;;;;;;;614058;23;1391;-71
2023/08/07 00:05:57;;;;;;;4.63;1.20;;;;;;;;;;613889;23;1350;-73
2023/08/07 00:06:13;;;;;;;5.18;1.38;;;;;;;;;;613567;23;1297;-73
2023/08/07 00:06:28;;;;;;;4.93;1.40;;;;;;;;;;616870;23;1361;-73
2023/08/07 00:06:44;;;;;;;5.07;1.50;;;;;;;;;;612862;23;1469;-73
2023/08/07 00:06:59;;;;;;;6.30;1.60;;;;;;;;;;615836;23;1408;-72
2023/08/07 00:07:15;;;;;;;5.82;1.60;;;;;;;;;;616100;23;1258;-73
2023/08/07 00:07:30;;;;;;;4.87;1.60;;;;;;;;;;619092;23;1280;-73
2023/08/07 00:07:46;;;;;;;6.47;1.50;;;;;;;;;;619372;23;820;-72
2023/08/07 00:08:02;;;;;;;6.75;1.48;;;;;;;;;;619824;23;1328;-72
2023/08/07 00:08:18;;;;;;;5.63;1.50;;;;;;;;;;615865;23;1254;-73
2023/08/07 00:08:33;;;;;;;4.97;1.50;;;;;;;;;;617379;23;883;-73
2023/08/07 00:08:49;;;;;;;4.72;1.40;;;;;;;;;;617942;23;1365;-72
2023/08/07 00:09:05;;;;;;;4.80;1.40;;;;;;;;;;620638;23;1138;-71
2023/08/07 00:09:21;;;;;;;4.10;1.30;;;;;;;;;;620064;23;1288;-73
2023/08/07 00:09:36;;;;;;;4.90;1.20;;;;;;;;;;619680;23;1296;-72
2023/08/07 00:09:52;;;;;;;5.60;1.30;;;;;;;;;;619978;23;1092;-72
2023/08/07 00:10:08;;;;;;;5.45;1.40;;;;;;;;;;616428;23;1346;-72
2023/08/07 00:10:27;;;;;;;5.00;1.50;;;;;;;;;;613801;23;1171;-72
2023/08/07 00:10:42;;;;;;;4.88;1.40;;;;;;;;;;616906;23;1609;-73
2023/08/07 00:11:05;;;;;;;5.55;1.42;;;;;;;;;;611155;23;1109;-72
2023/08/07 00:11:21;;;;;;;4.95;1.42;;;;;;;;;;614445;23;820;-73
2023/08/07 00:11:36;;;;;;;5.33;1.50;;;;;;;;;;616931;23;860;-72
2023/08/07 00:11:52;;;;;;;5.68;1.40;;;;;;;;;;613452;23;1328;-71
2023/08/07 00:12:08;;;;;;;5.00;1.40;;;;;;;;;;619533;23;1395;-72
2023/08/07 00:12:24;;;;;;;4.80;1.40;;;;;;;;;;619625;23;1266;-72
2023/08/07 00:12:39;;;;;;;4.63;1.40;;;;;;;;;;616623;23;2005;-73
2023/08/07 00:12:55;;;;;;;4.00;1.25;;;;;;;;;;619021;23;1348;-72
2023/08/07 00:13:10;;;;;;;4.57;1.30;;;;;;;;;;616372;23;1166;-73
2023/08/07 00:13:26;;;;;;;6.22;1.40;;;;;;;;;;619709;23;1420;-73
2023/08/07 00:13:42;;;;;;;7.23;1.47;;;;;;;;;;620326;23;880;-72
2023/08/07 00:14:00;;;;;;;6.55;1.48;;;;;;;;;;614145;23;1353;-71
2023/08/07 00:14:16;;;;;;;6.10;1.50;;;;;;;;;;620207;23;1268;-72
2023/08/07 00:14:32;;;;;;;6.53;1.70;;;;;;;;;;620149;23;1282;-72
2023/08/07 00:14:50;;;;;;;7.13;1.67;;;;;;;;;;616266;23;1435;-73
2023/08/07 00:15:06;;;;;;;7.35;1.65;;;;;;;;;;619723;23;1557;-72
2023/08/07 00:15:22;;;;;;;5.85;1.55;;;;;;;;;;622778;23;1299;-72
2023/08/07 00:15:38;;;;;;;5.27;1.50;;;;;;;;;;619680;23;1305;-72
2023/08/07 00:15:53;;;;;;;5.70;1.52;;;;;;;;;;619505;23;1340;-73
2023/08/07 00:16:10;;;;;;;6.10;1.70;;;;;;;;;;619479;23;832;-73
2023/08/07 00:16:26;;;;;;;4.95;1.42;;;;;;;;;;618833;23;1299;-73
2023/08/07 00:16:42;;;;;;;4.23;1.30;;;;;;;;;;616084;23;1281;-72
2023/08/07 00:16:57;;;;;;;4.57;1.42;;;;;;;;;;619850;23;1154;-73
2023/08/07 00:17:16;;;;;;;5.57;1.50;;;;;;;;;;619800;23;1456;-72
2023/08/07 00:17:32;;;;;;;6.18;1.60;;;;;;;;;;619984;23;1475;-72
2023/08/07 00:17:47;;;;;;;5.28;1.55;;;;;;;;;;623203;23;1336;-72
2023/08/07 00:18:03;;;;;;;5.35;1.50;;;;;;;;;;620404;23;1378;-73
2023/08/07 00:18:28;;;;;;;4.60;1.40;;;;;;;;;;619548;23;1288;-73
2023/08/07 00:18:43;;;;;;;4.60;1.33;;;;;;;;;;616859;23;1371;-71
2023/08/07 00:18:59;;;;;;;5.03;1.40;;;;;;;;;;620050;23;1202;-73
2023/08/07 00:19:16;;;;;;;5.30;1.40;;;;;;;;;;617335;23;1197;-72
2023/08/07 00:19:32;;;;;;;4.88;1.40;;;;;;;;;;620276;23;1288;-74
2023/08/07 00:19:47;;;;;;;4.57;1.40;;;;;;;;;;620027;23;1040;-73
2023/08/07 00:20:04;;;;;;;3.87;1.30;;;;;;;;;;623043;23;1339;-72
2023/08/07 00:20:20;;;;;;;5.38;1.40;;;;;;;;;;617825;23;1252;-73
2023/08/07 00:20:38;;;;;;;6.00;1.42;;;;;;;;;;620242;23;1341;-73
2023/08/07 00:21:14;;;;;;;6.35;1.55;;;;;;;;;;620663;23;907;-71
2023/08/07 00:21:30;;;;;;;4.03;1.30;;;;;;;;;;622172;23;1051;-72
2023/08/07 00:21:45;;;;;;;5.28;1.38;;;;;;;;;;619786;23;1550;-70
2023/08/07 00:22:01;;;;;;;8.27;1.60;;;;;;;;;;618014;23;1399;-72
2023/08/07 00:22:16;;;;;;;7.25;1.48;;;;;;;;;;619075;23;839;-73
2023/08/07 00:22:32;;;;;;;4.77;1.30;;;;;;;;;;618974;23;1304;-73
2023/08/07 00:22:47;;;;;;;6.15;1.60;;;;;;;;;;618018;23;1173;-73
2023/08/07 00:23:03;;;;;;;5.70;1.50;;;;;;;;;;620078;23;1212;-72
2023/08/07 00:23:18;;;;;;;4.45;1.50;;;;;;;;;;620226;23;1227;-72
2023/08/07 00:23:34;;;;;;;5.93;1.50;;;;;;;;;;617418;23;1249;-73
2023/08/07 00:23:55;;;;;;;5.43;1.40;;;;;;;;;;614296;23;1322;-73
2023/08/07 00:24:11;;;;;;;6.10;1.70;;;;;;;;;;617266;23;1455;-72
2023/08/07 00:24:26;;;;;;;4.53;1.47;;;;;;;;;;613881;23;1127;-73
2023/08/07 00:24:42;;;;;;;2.75;1.10;;;;;;;;;;613519;23;1393;-73
2023/08/07 00:24:57;;;;;;;4.95;1.35;;;;;;;;;;617473;23;1365;-73
2023/08/07 00:25:13;;;;;;;5.90;1.60;;;;;;;;;;617556;23;1080;-73
2023/08/07 00:25:28;;;;;;;5.82;1.60;;;;;;;;;;617549;23;908;-73
2023/08/07 00:25:44;;;;;;;5.10;1.50;;;;;;;;;;619323;23;1493;-74
2023/08/07 00:26:05;;;;;;;5.13;1.50;;;;;;;;;;618075;23;1241;-74
2023/08/07 00:26:21;;;;;;;6.70;1.40;;;;;;;;;;616869;23;1166;-73
2023/08/07 00:26:37;;;;;;;9.30;1.60;;;;;;;;;;617096;23;1412;-72
2023/08/07 00:26:52;;;;;;;7.75;1.60;;;;;;;;;;618867;23;817;-73
2023/08/07 00:27:12;;;;;;;5.00;1.43;;;;;;;;;;619931;23;1303;-72
2023/08/07 00:27:30;;;;;;;6.13;1.40;;;;;;;;;;616606;23;1202;-72
2023/08/07 00:27:46;;;;;;;6.20;1.40;;;;;;;;;;620739;23;832;-73
2023/08/07 00:28:01;;;;;;;5.72;1.50;;;;;;;;;;620843;23;1158;-72
2023/08/07 00:28:17;;;;;;;6.10;1.57;;;;;;;;;;619648;23;1298;-73
2023/08/07 00:28:32;;;;;;;5.78;1.60;;;;;;;;;;617867;23;1446;-72
2023/08/07 00:28:48;;;;;;;5.03;1.60;;;;;;;;;;614649;23;1245;-71
2023/08/07 00:29:03;;;;;;;5.43;1.65;;;;;;;;;;611539;23;1294;-73
2023/08/07 00:29:19;;;;;;;5.63;1.60;;;;;;;;;;614073;23;1182;-73
2023/08/07 00:29:36;;;;;;;5.38;1.55;;;;;;;;;;616504;23;1394;-72
2023/08/07 00:29:52;;;;;;;4.68;1.70;;;;;;;;;;619997;23;1396;-72
2023/08/07 00:30:08;;;;;;;4.22;1.60;;;;;;;;;;619637;23;1314;-72
2023/08/07 00:30:24;;;;;;;5.18;1.60;;;;;;;;;;620104;23;1358;-72
2023/08/07 00:30:39;;;;;;;5.32;1.60;;;;;;;;;;620607;23;1241;-72
2023/08/07 00:30:55;;;;;;;4.23;1.60;;;;;;;;;;617384;23;1305;-72
2023/08/07 00:31:12;;;;;;;4.60;1.65;;;;;;;;;;618117;23;1324;-73
2023/08/07 00:31:31;;;;;;;5.90;1.70;;;;;;;;;;618163;23;1395;-73
2023/08/07 00:31:46;;;;;;;5.40;1.70;;;;;;;;;;617881;23;1135;-72
2023/08/07 00:32:03;;;;;;;5.38;1.75;;;;;;;;;;621099;23;1189;-71
2023/08/07 00:32:18;;;;;;;9.48;1.88;;;;;;;;;;623430;23;1444;-73
2023/08/07 00:32:34;;;;;;;8.80;1.70;;;;;;;;;;623788;23;1224;-74
2023/08/07 00:32:49;;;;;;;7.40;1.60;;;;;;;;;;621127;23;1972;-72
2023/08/07 00:33:05;;;;;;;6.10;1.63;;;;;;;;;;617773;23;1347;-73
2023/08/07 00:33:21;;;;;;;4.68;1.60;;;;;;;;;;617539;23;1304;-72
2023/08/07 00:33:37;;;;;;;4.80;1.50;;;;;;;;;;614694;23;1396;-73
2023/08/07 00:33:54;;;;;;;5.25;1.45;;;;;;;;;;614842;23;817;-72
2023/08/07 00:34:12;;;;;;;6.90;1.58;;;;;;;;;;617258;23;1159;-72
2023/08/07 00:34:28;;;;;;;6.25;1.60;;;;;;;;;;614580;23;1388;-72
2023/08/07 00:34:44;;;;;;;4.10;1.50;;;;;;;;;;611134;23;1139;-73
2023/08/07 00:35:04;;;;;;;4.70;1.48;;;;;;;;;;613117;23;844;-73
2023/08/07 00:35:19;;;;;;;5.28;1.42;;;;;;;;;;617291;23;1547;-73
2023/08/07 00:35:35;;;;;;;5.88;1.90;;;;;;;;;;617205;23;1367;-73
2023/08/07 00:35:54;;;;;;;7.50;1.87;;;;;;;;;;615005;23;1264;-72
2023/08/07 00:36:10;;;;;;;7.07;1.60;;;;;;;;;;614523;23;1547;-73
2023/08/07 00:36:28;;;;;;;5.38;1.60;;;;;;;;;;614585;23;1369;-72
2023/08/07 00:36:43;;;;;;;5.90;1.63;;;;;;;;;;617197;23;1325;-73
2023/08/07 00:36:59;;;;;;;4.57;1.50;;;;;;;;;;619763;23;1197;-73
2023/08/07 00:37:15;;;;;;;5.07;1.50;;;;;;;;;;616325;23;1227;-73
2023/08/07 00:37:51;;;;;;;5.95;1.45;;;;;;;;;;616984;23;1194;-73
2023/08/07 00:38:06;;;;;;;4.97;1.80;;;;;;;;;;619882;23;1409;-73
2023/08/07 00:38:22;;;;;;;5.03;1.70;;;;;;;;;;618369;23;1257;-73
2023/08/07 00:38:37;;;;;;;5.47;1.57;;;;;;;;;;619812;23;785;-73
2023/08/07 00:39:16;;;;;;;5.85;1.70;;;;;;;;;;618413;23;1393;-72
2023/08/07 00:39:51;;;;;;;7.57;1.60;;;;;;;;;;610882;24;1188;-73
2023/08/07 00:40:08;;;;;;;6.72;1.80;;;;;;;;;;620270;23;1414;-72
2023/08/07 00:40:23;;;;;;;7.22;1.73;;;;;;;;;;623440;23;855;-73
2023/08/07 00:40:40;;;;;;;6.07;1.53;;;;;;;;;;620098;23;1202;-72
2023/08/07 00:40:56;;;;;;;6.03;1.60;;;;;;;;;;624100;23;1475;-74
2023/08/07 00:41:11;;;;;;;5.70;1.60;;;;;;;;;;624465;23;982;-73
2023/08/07 00:41:27;;;;;;;5.13;1.58;;;;;;;;;;621221;23;1189;-74
2023/08/07 00:41:42;;;;;;;5.60;1.63;;;;;;;;;;621332;23;828;-73
2023/08/07 00:41:58;;;;;;;4.75;1.58;;;;;;;;;;618104;23;1424;-74
2023/08/07 00:42:13;;;;;;;4.23;1.50;;;;;;;;;;618242;23;1241;-74
2023/08/07 00:42:29;;;;;;;5.20;1.50;;;;;;;;;;615824;23;1339;-75
2023/08/07 00:42:45;;;;;;;4.50;1.50;;;;;;;;;;615270;23;1209;-73
2023/08/07 00:43:00;;;;;;;4.95;1.60;;;;;;;;;;617381;23;804;-74
2023/08/07 00:43:16;;;;;;;6.27;1.73;;;;;;;;;;616693;23;1251;-73
2023/08/07 00:43:31;;;;;;;5.72;1.67;;;;;;;;;;617088;23;1340;-75
2023/08/07 00:43:47;;;;;;;4.60;1.60;;;;;;;;;;620397;23;1313;-74
2023/08/07 00:44:03;;;;;;;5.20;1.50;;;;;;;;;;620667;23;1232;-74
2023/08/07 00:44:19;;;;;;;5.18;1.60;;;;;;;;;;619925;23;1275;-73
2023/08/07 00:44:35;;;;;;;5.18;1.77;;;;;;;;;;620478;23;788;-74
2023/08/07 00:44:50;;;;;;;5.18;1.80;;;;;;;;;;617492;23;1521;-73
2023/08/07 00:45:07;;;;;;;5.25;1.70;;;;;;;;;;617634;23;1179;-72
2023/08/07 00:45:22;;;;;;;5.30;1.60;;;;;;;;;;621331;23;1342;-74
2023/08/07 00:45:42;;;;;;;6.17;1.73;;;;;;;;;;621008;23;1295;-74
2023/08/07 00:45:58;;;;;;;6.45;1.80;;;;;;;;;;618505;23;1280;-74
2023/08/07 00:46:14;;;;;;;5.97;1.60;;;;;;;;;;615514;23;1443;-72
2023/08/07 00:46:30;;;;;;;6.68;1.83;;;;;;;;;;618309;23;1578;-73
2023/08/07 00:46:46;;;;;;;7.07;1.98;;;;;;;;;;615275;23;1273;-74
2023/08/07 00:47:02;;;;;;;6.10;1.83;;;;;;;;;;614283;23;1567;-73
2023/08/07 00:47:18;;;;;;;5.97;1.90;;;;;;;;;;617144;23;1377;-72
2023/08/07 00:47:34;;;;;;;6.73;1.73;;;;;;;;;;614502;23;1237;-73
2023/08/07 00:47:49;;;;;;;7.13;1.75;;;;;;;;;;615085;23;1405;-73
2023/08/07 00:48:05;;;;;;;6.20;1.70;;;;;;;;;;615669;23;1301;-74
2023/08/07 00:48:21;;;;;;;5.03;1.50;;;;;;;;;;618033;23;1436;-73
2023/08/07 00:48:37;;;;;;;5.78;1.65;;;;;;;;;;618093;23;1180;-73
2023/08/07 00:48:53;;;;;;;6.40;1.77;;;;;;;;;;618804;23;983;-73
2023/08/07 00:49:12;;;;;;;6.10;1.60;;;;;;;;;;618640;23;864;-74
2023/08/07 00:49:28;;;;;;;5.70;1.50;;;;;;;;;;619907;23;1304;-73
2023/08/07 00:49:44;;;;;;;4.87;1.57;;;;;;;;;;619714;23;1166;-73
2023/08/07 00:50:00;;;;;;;4.75;1.58;;;;;;;;;;620928;23;1273;-74
2023/08/07 00:50:16;;;;;;;5.97;1.80;;;;;;;;;;622751;23;1205;-74
2023/08/07 00:50:31;;;;;;;6.75;1.92;;;;;;;;;;623043;23;1070;-74
2023/08/07 00:50:48;;;;;;;6.15;1.90;;;;;;;;;;621104;23;1502;-75
2023/08/07 00:51:04;;;;;;;5.15;1.80;;;;;;;;;;616894;23;1471;-73
2023/08/07 00:51:21;;;;;;;6.32;1.90;;;;;;;;;;614359;23;1130;-73
2023/08/07 00:51:37;;;;;;;5.38;1.65;;;;;;;;;;615183;23;1407;-72
2023/08/07 00:51:53;;;;;;;4.38;1.40;;;;;;;;;;614995;23;1300;-74
2023/08/07 00:52:09;;;;;;;5.00;1.50;;;;;;;;;;617930;23;1226;-73
2023/08/07 00:52:25;;;;;;;4.82;1.60;;;;;;;;;;617921;23;1338;-74
2023/08/07 00:52:41;;;;;;;4.75;1.63;;;;;;;;;;617349;23;1913;-73
2023/08/07 00:52:57;;;;;;;6.03;1.77;;;;;;;;;;617130;23;1218;-74
2023/08/07 00:53:13;;;;;;;8.38;1.80;;;;;;;;;;616937;23;1235;-75
2023/08/07 00:53:29;;;;;;;7.60;1.90;;;;;;;;;;619817;23;1300;-74
2023/08/07 00:53:45;;;;;;;5.65;1.83;;;;;;;;;;617783;23;1403;-74
2023/08/07 00:54:03;;;;;;;5.72;1.58;;;;;;;;;;620601;23;1491;-74
2023/08/07 00:54:20;;;;;;;5.00;1.63;;;;;;;;;;620427;23;1480;-73
2023/08/07 00:54:40;;;;;;;5.05;1.70;;;;;;;;;;619156;23;1422;-73
2023/08/07 00:54:55;;;;;;;4.88;1.67;;;;;;;;;;618870;23;1339;-74
2023/08/07 00:55:11;;;;;;;5.53;1.70;;;;;;;;;;620067;23;1283;-73
2023/08/07 00:55:27;;;;;;;5.78;1.52;;;;;;;;;;622938;23;1281;-74
2023/08/07 00:55:43;;;;;;;5.57;1.52;;;;;;;;;;623100;23;970;-74
2023/08/07 00:56:00;;;;;;;5.57;1.70;;;;;;;;;;622947;23;1323;-74
2023/08/07 00:56:36;;;;;;;5.60;1.80;;;;;;;;;;617182;23;1437;-74
2023/08/07 00:56:52;;;;;;;5.75;1.60;;;;;;;;;;619690;23;1677;-74
2023/08/07 00:57:12;;;;;;;6.63;1.70;;;;;;;;;;617727;23;1527;-74
2023/08/07 00:57:30;;;;;;;6.68;1.73;;;;;;;;;;618156;23;1641;-73
2023/08/07 00:57:46;;;;;;;5.53;1.70;;;;;;;;;;617555;23;1343;-74
2023/08/07 00:58:02;;;;;;;5.57;1.80;;;;;;;;;;620317;23;843;-73
2023/08/07 00:58:18;;;;;;;6.07;1.70;;;;;;;;;;620385;23;925;-75
2023/08/07 00:58:33;;;;;;;5.13;1.50;;;;;;;;;;616194;23;1334;-74
2023/08/07 00:58:50;;;;;;;5.60;1.60;;;;;;;;;;619261;23;1239;-74
2023/08/07 00:59:06;;;;;;;5.35;1.55;;;;;;;;;;619189;23;1532;-72
2023/08/07 00:59:22;;;;;;;5.05;1.50;;;;;;;;;;620248;23;891;-73
2023/08/07 00:59:38;;;;;;;5.83;1.77;;;;;;;;;;618498;23;1256;-74
2023/08/07 00:59:54;;;;;;;5.00;1.63;;;;;;;;;;619713;23;1443;-74
2023/08/07 01:00:11;;;;;;;4.53;1.40;;;;;;;;;;617434;23;1290;-73
2023/08/07 01:00:29;;;;;;;6.07;1.65;;;;;;;;;;617842;23;1443;-73
2023/08/07 01:00:44;;;;;;;5.43;1.60;;;;;;;;;;619924;23;1346;-74
2023/08/07 01:01:00;;;;;;;4.10;1.40;;;;;;;;;;619829;23;1387;-73
2023/08/07 01:01:16;;;;;;;4.50;1.40;;;;;;;;;;619631;23;839;-73
2023/08/07 01:01:32;;;;;;;6.13;1.50;;;;;;;;;;623370;23;1308;-73
2023/08/07 01:01:48;;;;;;;5.60;1.60;;;;;;;;;;620497;23;1252;-73
2023/08/07 01:02:04;;;;;;;4.60;1.60;;;;;;;;;;619787;23;1375;-73
2023/08/07 01:02:20;;;;;;;4.32;1.60;;;;;;;;;;619669;23;828;-73
2023/08/07 01:02:35;;;;;;;4.57;1.52;;;;;;;;;;620836;23;997;-75
2023/08/07 01:02:53;;;;;;;4.50;1.50;;;;;;;;;;622514;23;1153;-73
2023/08/07 01:03:13;;;;;;;4.65;1.52;;;;;;;;;;619404;23;1245;-73
2023/08/07 01:03:29;;;;;;;5.55;1.70;;;;;;;;;;621325;23;1364;-74
2023/08/07 01:03:45;;;;;;;5.85;1.80;;;;;;;;;;624381;23;1333;-74
2023/08/07 01:04:00;;;;;;;6.07;1.90;;;;;;;;;;625555;23;1247;-73
2023/08/07 01:04:16;;;;;;;6.60;2.00;;;;;;;;;;622826;23;1305;-73
2023/08/07 01:04:31;;;;;;;6.38;1.80;;;;;;;;;;622641;23;923;-74
2023/08/07 01:04:47;;;;;;;5.97;1.63;;;;;;;;;;619883;23;1173;-74
2023/08/07 01:05:03;;;;;;;6.47;1.73;;;;;;;;;;616380;23;1456;-73
2023/08/07 01:05:19;;;;;;;6.15;1.63;;;;;;;;;;622787;23;1221;-75
2023/08/07 01:05:34;;;;;;;6.15;1.75;;;;;;;;;;619190;23;1255;-73
2023/08/07 01:05:53;;;;;;;5.43;1.70;;;;;;;;;;619419;23;1328;-74
2023/08/07 01:06:09;;;;;;;5.43;1.67;;;;;;;;;;620284;23;872;-74
2023/08/07 01:06:25;;;;;;;5.35;1.80;;;;;;;;;;619749;23;905;-74
2023/08/07 01:06:40;;;;;;;5.57;1.98;;;;;;;;;;621273;23;776;-73
2023/08/07 01:06:56;;;;;;;5.57;1.70;;;;;;;;;;624988;23;1176;-74
2023/08/07 01:07:11;;;;;;;5.20;1.50;;;;;;;;;;621399;23;1299;-74
2023/08/07 01:07:27;;;;;;;4.83;1.67;;;;;;;;;;619968;23;1169;-73
2023/08/07 01:07:42;;;;;;;4.75;1.77;;;;;;;;;;621349;23;835;-73
2023/08/07 01:07:58;;;;;;;5.47;1.70;;;;;;;;;;622607;23;1086;-74
2023/08/07 01:08:14;;;;;;;5.00;1.70;;;;;;;;;;619431;23;1281;-73
2023/08/07 01:08:29;;;;;;;4.97;1.70;;;;;;;;;;621691;23;1165;-73
2023/08/07 01:08:46;;;;;;;5.73;1.60;;;;;;;;;;622086;23;1343;-74
2023/08/07 01:09:01;;;;;;;6.85;1.60;;;;;;;;;;621715;23;997;-74
2023/08/07 01:09:17;;;;;;;6.83;1.60;;;;;;;;;;620252;23;819;-73
2023/08/07 01:09:33;;;;;;;6.22;1.70;;;;;;;;;;619519;23;1344;-75
2023/08/07 01:09:49;;;;;;;5.90;1.70;;;;;;;;;;620394;23;856;-73
2023/08/07 01:10:06;;;;;;;5.32;1.50;;;;;;;;;;622622;23;945;-73
2023/08/07 01:10:49;;;;;;;5.97;1.70;;;;;;;;;;622502;23;1335;-75
2023/08/07 01:11:15;;;;;;;5.75;1.80;;;;;;;;;;625660;23;1153;-74
2023/08/07 01:11:46;;;;;;;6.00;1.88;;;;;;;;;;622774;23;1523;-72
2023/08/07 01:12:04;;;;;;;5.80;1.75;;;;;;;;;;620028;23;1539;-74
2023/08/07 01:12:28;;;;;;;5.72;1.77;;;;;;;;;;619387;23;1258;-73
2023/08/07 01:12:54;;;;;;;5.35;1.75;;;;;;;;;;619291;23;1944;-73
2023/08/07 01:13:28;;;;;;;4.55;1.70;;;;;;;;;;619637;23;1296;-73
2023/08/07 01:14:05;;;;;;;5.55;1.58;;;;;;;;;;619681;23;1343;-74
2023/08/07 01:14:50;;;;;;;5.78;1.90;;;;;;;;;;619437;23;1332;-73
2023/08/07 01:15:30;;;;;;;5.50;1.65;;;;;;;;;;621955;23;1238;-73
2023/08/07 01:15:50;;;;;;;4.70;1.70;;;;;;;;;;622126;23;1354;-73
2023/08/07 01:16:20;;;;;;;4.85;1.77;;;;;;;;;;622380;23;867;-74
2023/08/07 01:16:47;;;;;;;5.72;1.60;;;;;;;;;;625193;23;918;-74
2023/08/07 01:17:10;;;;;;;4.63;1.65;;;;;;;;;;625467;23;946;-74
2023/08/07 01:17:26;;;;;;;5.55;1.77;;;;;;;;;;622792;23;1305;-74
2023/08/07 01:17:44;;;;;;;7.03;1.80;;;;;;;;;;624854;23;862;-74
2023/08/07 01:18:00;;;;;;;5.50;1.70;;;;;;;;;;622601;23;1245;-73
2023/08/07 01:18:17;;;;;;;5.05;1.75;;;;;;;;;;619471;23;1516;-73
2023/08/07 01:18:34;;;;;;;5.78;1.80;;;;;;;;;;616221;23;1415;-74
2023/08/07 01:18:50;;;;;;;4.18;1.60;;;;;;;;;;616573;23;1324;-73
2023/08/07 01:19:13;;;;;;;5.10;1.67;;;;;;;;;;613783;23;1375;-74
2023/08/07 01:19:29;;;;;;;5.82;1.83;;;;;;;;;;616622;23;1441;-74
2023/08/07 01:19:45;;;;;;;4.88;1.63;;;;;;;;;;619962;23;1404;-74
2023/08/07 01:20:02;;;;;;;5.45;1.70;;;;;;;;;;617464;23;1433;-74
2023/08/07 01:20:20;;;;;;;6.30;1.88;;;;;;;;;;616682;23;1253;-74
2023/08/07 01:20:37;;;;;;;6.63;1.90;;;;;;;;;;619000;23;1446;-73
2023/08/07 01:20:52;;;;;;;6.45;1.73;;;;;;;;;;619200;23;1332;-74
2023/08/07 01:21:17;;;;;;;5.65;1.70;;;;;;;;;;616578;23;1333;-74
2023/08/07 01:21:33;;;;;;;5.70;1.70;;;;;;;;;;615353;23;1384;-74
2023/08/07 01:21:49;;;;;;;5.55;1.73;;;;;;;;;;618219;23;1501;-75
2023/08/07 01:22:16;;;;;;;5.83;1.70;;;;;;;;;;619503;23;788;-74
2023/08/07 01:22:31;;;;;;;4.45;1.73;;;;;;;;;;619571;23;1405;-73
2023/08/07 01:22:47;;;;;;;4.60;1.63;;;;;;;;;;618322;23;1255;-74
2023/08/07 01:23:05;;;;;;;5.37;1.77;;;;;;;;;;616785;23;1186;-74
2023/08/07 01:23:21;;;;;;;5.78;1.75;;;;;;;;;;617254;23;1435;-75
2023/08/07 01:23:36;;;;;;;4.43;1.57;;;;;;;;;;619703;23;1237;-74
2023/08/07 01:23:52;;;;;;;5.23;1.80;;;;;;;;;;619265;23;1516;-74
2023/08/07 01:24:09;;;;;;;6.53;1.90;;;;;;;;;;617925;23;1166;-74
2023/08/07 01:24:24;;;;;;;5.40;1.70;;;;;;;;;;617875;23;898;-73
2023/08/07 01:24:49;;;;;;;6.07;1.80;;;;;;;;;;617260;23;1181;-75
2023/08/07 01:25:05;;;;;;;6.03;1.70;;;;;;;;;;618729;23;863;-74
2023/08/07 01:25:21;;;;;;;5.20;1.80;;;;;;;;;;619355;23;836;-74
2023/08/07 01:25:38;;;;;;;5.57;1.90;;;;;;;;;;615989;23;1434;-74
2023/08/07 01:25:53;;;;;;;5.88;1.80;;;;;;;;;;616155;23;1328;-73
2023/08/07 01:26:09;;;;;;;5.60;1.77;;;;;;;;;;619558;23;1379;-74
2023/08/07 01:26:28;;;;;;;6.32;1.80;;;;;;;;;;622222;23;1361;-74
2023/08/07 01:26:46;;;;;;;5.70;1.75;;;;;;;;;;625048;23;1405;-74
2023/08/07 01:27:30;;;;;;;4.75;1.88;;;;;;;;;;621917;23;1154;-74
2023/08/07 01:28:02;;;;;;;5.05;1.83;;;;;;;;;;626224;23;898;-74
2023/08/07 01:28:39;;;;;;;7.45;2.00;;;;;;;;;;622272;23;930;-74
2023/08/07 01:29:02;;;;;;;4.50;1.60;;;;;;;;;;621637;23;1500;-73
2023/08/07 01:29:35;;;;;;;4.72;1.50;;;;;;;;;;618877;23;1281;-73
2023/08/07 01:30:03;;;;;;;4.53;1.70;;;;;;;;;;619407;23;911;-74
2023/08/07 01:30:40;;;;;;;6.10;1.67;;;;;;;;;;619212;23;912;-74
2023/08/07 01:31:04;;;;;;;4.88;1.70;;;;;;;;;;622970;23;877;-74
2023/08/07 01:31:24;;;;;;;5.85;1.88;;;;;;;;;;621614;23;1479;-74
2023/08/07 01:31:41;;;;;;;4.63;1.83;;;;;;;;;;618930;23;939;-74
2023/08/07 01:32:00;;;;;;;5.07;1.88;;;;;;;;;;619337;23;1146;-74
2023/08/07 01:32:24;;;;;;;5.22;1.88;;;;;;;;;;618609;23;1484;-73
2023/08/07 01:33:08;;;;;;;4.10;1.65;;;;;;;;;;616344;23;1976;-73
2023/08/07 01:33:53;;;;;;;5.00;1.73;;;;;;;;;;607502;24;1381;-73
2023/08/07 01:34:13;;;;;;;4.95;1.73;;;;;;;;;;620422;23;1430;-73
2023/08/07 01:34:29;;;;;;;4.32;1.70;;;;;;;;;;619652;23;1468;-74
2023/08/07 01:34:47;;;;;;;5.28;1.90;;;;;;;;;;621807;23;1447;-74
2023/08/07 01:35:05;;;;;;;4.57;1.70;;;;;;;;;;619200;23;1339;-75
2023/08/07 01:35:26;;;;;;;4.45;1.60;;;;;;;;;;618923;23;1415;-73
2023/08/07 01:35:51;;;;;;;5.75;1.73;;;;;;;;;;619789;23;866;-75
2023/08/07 01:36:08;;;;;;;5.50;1.80;;;;;;;;;;621018;23;1433;-74
2023/08/07 01:36:28;;;;;;;4.50;1.60;;;;;;;;;;621793;23;1264;-73
2023/08/07 01:36:45;;;;;;;6.30;1.83;;;;;;;;;;621624;23;858;-74
2023/08/07 01:37:03;;;;;;;7.55;1.90;;;;;;;;;;622167;23;995;-73
2023/08/07 01:37:19;;;;;;;5.47;1.80;;;;;;;;;;621519;23;1296;-73
2023/08/07 01:37:38;;;;;;;6.05;1.70;;;;;;;;;;619482;23;1336;-73
2023/08/07 01:37:56;;;;;;;5.25;1.67;;;;;;;;;;617037;23;1405;-73
2023/08/07 01:38:12;;;;;;;5.40;1.73;;;;;;;;;;616649;23;1332;-73
2023/08/07 01:38:29;;;;;;;4.80;1.55;;;;;;;;;;616844;23;1310;-74
2023/08/07 01:38:48;;;;;;;4.22;1.50;;;;;;;;;;613571;23;1437;-74
2023/08/07 01:39:06;;;;;;;3.72;1.73;;;;;;;;;;610764;23;1446;-74
2023/08/07 01:39:23;;;;;;;4.55;1.80;;;;;;;;;;611045;23;1604;-74
2023/08/07 01:39:40;;;;;;;5.18;1.75;;;;;;;;;;610087;24;840;-74
2023/08/07 01:39:59;;;;;;;5.32;1.77;;;;;;;;;;610795;23;1436;-75
2023/08/07 01:40:15;;;;;;;4.50;1.52;;;;;;;;;;613297;23;871;-74
2023/08/07 01:40:32;;;;;;;6.20;1.70;;;;;;;;;;613433;23;1297;-73
2023/08/07 01:40:48;;;;;;;5.85;1.58;;;;;;;;;;616170;23;1284;-73
2023/08/07 01:41:05;;;;;;;5.20;1.70;;;;;;;;;;618987;23;1358;-74
2023/08/07 01:41:20;;;;;;;4.70;1.70;;;;;;;;;;617966;23;1574;-74
2023/08/07 01:42:00;;;;;;;3.17;1.40;;;;;;;;;;616276;23;1249;-74
2023/08/07 01:42:16;;;;;;;5.10;1.55;;;;;;;;;;607402;24;1445;-74
2023/08/07 01:42:40;;;;;;;4.93;1.60;;;;;;;;;;615038;23;1295;-74
2023/08/07 01:42:56;;;;;;;5.43;1.67;;;;;;;;;;615780;23;1288;-74
2023/08/07 01:43:11;;;;;;;4.60;1.60;;;;;;;;;;613592;23;1289;-74
2023/08/07 01:43:27;;;;;;;3.87;1.57;;;;;;;;;;613749;23;1315;-72
2023/08/07 01:43:43;;;;;;;3.95;1.50;;;;;;;;;;615208;23;1379;-75
2023/08/07 01:43:58;;;;;;;4.57;1.60;;;;;;;;;;615428;23;1391;-73
2023/08/07 01:44:14;;;;;;;5.53;1.67;;;;;;;;;;615764;23;1086;-74
2023/08/07 01:44:30;;;;;;;4.32;1.50;;;;;;;;;;615023;23;1201;-75
2023/08/07 01:44:45;;;;;;;4.57;1.60;;;;;;;;;;615179;23;1382;-75
2023/08/07 01:45:07;;;;;;;6.23;1.80;;;;;;;;;;615058;23;1376;-75
2023/08/07 01:45:27;;;;;;;4.97;1.73;;;;;;;;;;618509;23;1246;-74
2023/08/07 01:45:42;;;;;;;4.85;1.60;;;;;;;;;;618344;23;1304;-74
2023/08/07 01:45:58;;;;;;;4.60;1.70;;;;;;;;;;618582;23;836;-74
2023/08/07 01:46:17;;;;;;;3.53;1.65;;;;;;;;;;618729;23;1300;-74
2023/08/07 01:46:41;;;;;;;4.63;1.70;;;;;;;;;;615699;23;1675;-74
2023/08/07 01:47:00;;;;;;;4.80;1.58;;;;;;;;;;617855;23;1488;-75
2023/08/07 01:47:16;;;;;;;3.63;1.52;;;;;;;;;;618668;23;1336;-74
2023/08/07 01:47:35;;;;;;;3.35;1.45;;;;;;;;;;620157;23;859;-74
2023/08/07 01:47:52;;;;;;;4.30;1.52;;;;;;;;;;621798;23;863;-74
2023/08/07 01:48:08;;;;;;;3.85;1.42;;;;;;;;;;618992;23;1343;-75
2023/08/07 01:48:24;;;;;;;3.35;1.40;;;;;;;;;;615425;23;1382;-74
2023/08/07 01:48:42;;;;;;;3.58;1.50;;;;;;;;;;612915;23;1245;-73
2023/08/07 01:49:01;;;;;;;4.38;1.70;;;;;;;;;;616009;23;864;-74
2023/08/07 01:49:19;;;;;;;5.10;1.70;;;;;;;;;;616135;23;1743;-74
2023/08/07 01:49:35;;;;;;;4.85;1.65;;;;;;;;;;612801;23;1403;-74
2023/08/07 01:49:54;;;;;;;4.00;1.55;;;;;;;;;;612811;23;1333;-75
2023/08/07 01:50:13;;;;;;;3.97;1.63;;;;;;;;;;613385;23;1249;-74
2023/08/07 01:50:29;;;;;;;5.18;1.70;;;;;;;;;;616137;23;1350;-75
2023/08/07 01:50:47;;;;;;;5.78;2.00;;;;;;;;;;619157;23;836;-73
2023/08/07 01:51:03;;;;;;;4.20;1.73;;;;;;;;;;615799;23;1312;-73
2023/08/07 01:51:19;;;;;;;3.88;1.60;;;;;;;;;;615887;23;1249;-75